Artas, South Dakota
Current Conditions -  °F | °C
As of 4:52 PM on Friday 31 Oct 2014 (Local Time) from KMBG Reporting Station
Clear Clear  
Wind Chill: 32°   Ceiling: Unl
Heat Index: 42°   Visibility: 10mi
Dew Point: 12°   Wind: 28mph
Humidity: 29%   Direction: 150°SSE
Pressure: 30.25"   Gusts: 35mph
Location:  45.7737°N, 99.5895°W
Report Text: KMBG 312152Z AUTO 15024G30KT 10SM CLR 06/M11 A3025 RMK AO2 PK WND 17032/2119 SLP263 T00561111
Loading
Personal Weather Stations






























Interactive Weather Map
Tropical Storm Tracking
New forecast layout! Learn more

10-Day Weather Forecast

Advertisements
Track Severe Weather on mobile